createdAt,value
2022-11-25T00:00:16.598Z,6.90
2022-11-25T00:01:16.620Z,6.70
2022-11-25T00:02:16.647Z,7.20
2022-11-25T00:03:16.597Z,7.20
2022-11-25T00:04:16.547Z,4.20
2022-11-25T00:05:16.545Z,5.70
2022-11-25T00:06:16.518Z,4.80
2022-11-25T00:07:16.601Z,6.10
2022-11-25T00:08:16.498Z,6.40
2022-11-25T00:09:16.486Z,5.20
2022-11-25T00:10:16.466Z,5.10
2022-11-25T00:11:16.457Z,4.00
2022-11-25T00:12:16.440Z,6.20
2022-11-25T00:13:16.447Z,5.70
2022-11-25T00:14:16.416Z,4.60
2022-11-25T00:15:16.404Z,4.20
2022-11-25T00:16:16.425Z,3.60
2022-11-25T00:17:16.376Z,4.50
2022-11-25T00:18:16.356Z,6.20
2022-11-25T00:19:16.368Z,3.40
2022-11-25T00:20:16.336Z,3.70
2022-11-25T00:21:16.328Z,5.40
2022-11-25T00:22:16.306Z,4.90
2022-11-25T00:23:16.307Z,3.10
2022-11-25T00:24:16.286Z,4.20
2022-11-25T00:25:16.296Z,4.00
2022-11-25T00:26:16.246Z,5.70
2022-11-25T00:27:16.246Z,3.40
2022-11-25T00:28:16.227Z,3.80
2022-11-25T00:29:16.217Z,3.90
2022-11-25T00:30:16.207Z,3.60
2022-11-25T00:31:16.253Z,3.20
2022-11-25T00:32:16.176Z,6.80
2022-11-25T00:33:16.176Z,4.70
2022-11-25T00:34:16.146Z,5.00
2022-11-25T00:35:16.137Z,3.40
2022-11-25T00:36:16.125Z,3.60
2022-11-25T00:37:16.133Z,4.10
2022-11-25T00:38:16.095Z,3.10
2022-11-25T00:39:16.100Z,4.40
2022-11-25T00:40:16.065Z,4.40
2022-11-25T00:41:16.059Z,6.50
2022-11-25T00:42:16.042Z,4.10
2022-11-25T00:43:16.065Z,4.10
2022-11-25T00:44:16.014Z,9.50
2022-11-25T00:45:16.006Z,5.10
2022-11-25T00:46:16.029Z,4.50
2022-11-25T00:47:15.983Z,3.20
2022-11-25T00:48:15.966Z,7.80
2022-11-25T00:49:15.971Z,4.60
2022-11-25T00:50:15.934Z,4.10
2022-11-25T00:51:15.932Z,3.60
2022-11-25T00:52:15.904Z,5.40
2022-11-25T00:53:15.894Z,3.40
2022-11-25T00:54:15.883Z,5.90
2022-11-25T00:55:15.893Z,4.70
2022-11-25T00:56:15.856Z,3.90
2022-11-25T00:57:15.843Z,5.10
2022-11-25T00:58:15.849Z,4.80
2022-11-25T00:59:15.833Z,6.10
2022-11-25T01:00:15.805Z,4.70
2022-11-25T01:01:15.848Z,2.80
2022-11-25T01:02:15.848Z,4.30
2022-11-25T01:03:15.767Z,3.90
2022-11-25T01:04:15.744Z,3.80
2022-11-25T01:05:15.852Z,4.00
2022-11-25T01:06:15.877Z,4.00
2022-11-25T01:07:15.905Z,4.30
2022-11-25T01:08:15.693Z,4.70
2022-11-25T01:09:15.683Z,3.80
2022-11-25T01:10:15.670Z,6.60
2022-11-25T01:11:15.654Z,4.70
2022-11-25T01:12:15.645Z,5.60
2022-11-25T01:13:15.660Z,3.60
2022-11-25T01:14:15.612Z,3.80
2022-11-25T01:15:15.613Z,5.30
2022-11-25T01:16:15.634Z,4.00
2022-11-25T01:17:15.595Z,4.40
2022-11-25T01:18:15.560Z,4.50
2022-11-25T01:19:15.569Z,4.20
2022-11-25T01:20:15.531Z,5.10
2022-11-25T01:21:15.522Z,5.60
2022-11-25T01:22:15.504Z,4.60
2022-11-25T01:23:15.501Z,3.60
2022-11-25T01:24:15.484Z,6.50
2022-11-25T01:25:15.492Z,3.30
2022-11-25T01:26:15.457Z,4.70
2022-11-25T01:27:15.443Z,4.40
2022-11-25T01:28:15.422Z,5.80
2022-11-25T01:29:15.418Z,5.80
2022-11-25T01:30:15.405Z,5.50
2022-11-25T01:31:15.449Z,3.60
2022-11-25T01:32:15.370Z,4.60
2022-11-25T01:33:15.360Z,5.50
2022-11-25T01:34:15.341Z,7.00
2022-11-25T01:35:15.331Z,5.50
2022-11-25T01:36:15.321Z,4.20
2022-11-25T01:37:15.329Z,4.50
2022-11-25T01:38:15.291Z,5.20
2022-11-25T01:39:15.280Z,5.10
2022-11-25T01:40:15.260Z,6.00
2022-11-25T01:41:15.261Z,5.40
2022-11-25T01:42:15.231Z,4.10
2022-11-25T01:43:15.250Z,5.30
2022-11-25T01:44:15.217Z,5.00
2022-11-25T01:45:15.206Z,5.10
2022-11-25T01:46:15.222Z,7.30
2022-11-25T01:47:15.171Z,4.90
2022-11-25T01:48:15.149Z,3.00
2022-11-25T01:49:15.177Z,6.70
2022-11-25T01:50:15.129Z,4.90
2022-11-25T01:51:15.153Z,5.90
2022-11-25T01:52:15.129Z,5.10
2022-11-25T01:53:15.102Z,5.20
2022-11-25T01:54:15.080Z,6.10
2022-11-25T01:55:15.090Z,5.30
2022-11-25T01:56:15.053Z,5.50
2022-11-25T01:57:15.050Z,6.50
2022-11-25T01:58:15.039Z,5.60
2022-11-25T01:59:15.012Z,5.90
2022-11-25T02:00:14.998Z,3.90
2022-11-25T02:01:16.042Z,4.80
2022-11-25T02:02:15.028Z,5.60
2022-11-25T02:03:14.960Z,6.10
2022-11-25T02:04:14.942Z,5.50
2022-11-25T02:05:14.938Z,4.70
2022-11-25T02:06:14.918Z,9.80
2022-11-25T02:07:14.994Z,4.90
2022-11-25T02:08:14.888Z,4.60
2022-11-25T02:09:14.880Z,6.00
2022-11-25T02:10:14.861Z,6.80
2022-11-25T02:11:14.861Z,6.20
2022-11-25T02:12:14.838Z,5.50
2022-11-25T02:13:14.847Z,3.70
2022-11-25T02:14:14.812Z,5.20
2022-11-25T02:15:14.801Z,4.10
2022-11-25T02:16:14.828Z,5.30
2022-11-25T02:17:14.778Z,5.50
2022-11-25T02:18:14.756Z,5.60
2022-11-25T02:19:14.767Z,17.90
2022-11-25T02:20:14.727Z,16.30
2022-11-25T02:21:14.718Z,14.90
2022-11-25T02:22:14.706Z,22.50
2022-11-25T02:23:14.695Z,21.10
2022-11-25T02:24:14.686Z,4.90
2022-11-25T02:25:14.699Z,69.00
2022-11-25T02:26:14.647Z,33.30
2022-11-25T02:27:14.647Z,16.10
2022-11-25T02:28:14.617Z,28.90
2022-11-25T02:29:14.626Z,62.90
2022-11-25T02:30:14.597Z,37.30
2022-11-25T02:31:15.655Z,11.50
2022-11-25T02:32:14.566Z,5.20
2022-11-25T02:33:14.557Z,37.60
2022-11-25T02:34:14.538Z,92.20
2022-11-25T02:35:14.536Z,45.80
2022-11-25T02:36:14.519Z,39.00
2022-11-25T02:37:14.529Z,30.10
2022-11-25T02:38:14.487Z,7.20
2022-11-25T02:39:14.487Z,13.20
2022-11-25T02:40:14.458Z,123.30
2022-11-25T02:41:14.482Z,53.10
2022-11-25T02:42:14.444Z,21.10
2022-11-25T02:43:14.448Z,46.60
2022-11-25T02:44:14.416Z,71.30
2022-11-25T02:45:14.405Z,34.10
2022-11-25T02:46:20.400Z,38.60
2022-11-25T02:47:15.375Z,14.60
2022-11-25T02:48:14.366Z,16.40
2022-11-25T02:49:14.376Z,22.80
2022-11-25T02:50:14.336Z,6.80
2022-11-25T02:51:14.317Z,4.10
2022-11-25T02:52:14.319Z,2.70
2022-11-25T02:53:14.297Z,3.60
2022-11-25T02:54:14.278Z,7.70
2022-11-25T02:55:14.285Z,10.00
2022-11-25T02:56:14.254Z,4.90
2022-11-25T02:57:14.235Z,34.80
2022-11-25T02:58:14.234Z,34.60
2022-11-25T02:59:14.216Z,24.00
2022-11-25T03:00:14.208Z,44.80
2022-11-25T03:01:14.222Z,35.90
2022-11-25T03:02:14.197Z,37.90
2022-11-25T03:03:14.155Z,53.00
2022-11-25T03:04:14.154Z,62.80
2022-11-25T03:05:14.135Z,92.30
2022-11-25T03:06:14.135Z,55.50
2022-11-25T03:07:14.150Z,26.00
2022-11-25T03:08:14.107Z,29.40
2022-11-25T03:09:14.084Z,48.00
2022-11-25T03:10:14.074Z,35.10
2022-11-25T03:11:14.053Z,44.40
2022-11-25T03:12:14.051Z,89.50
2022-11-25T03:13:14.055Z,38.80
2022-11-25T03:14:14.014Z,36.20
2022-11-25T03:15:14.014Z,19.90
2022-11-25T03:16:14.051Z,12.00
2022-11-25T03:17:13.978Z,18.00
2022-11-25T03:18:13.968Z,14.90
2022-11-25T03:19:13.986Z,21.20
2022-11-25T03:20:13.948Z,10.90
2022-11-25T03:21:13.922Z,7.00
2022-11-25T03:22:13.908Z,5.20
2022-11-25T03:23:13.893Z,7.40
2022-11-25T03:24:13.883Z,10.30
2022-11-25T03:25:13.883Z,4.90
2022-11-25T03:26:13.858Z,9.30
2022-11-25T03:27:13.833Z,11.40
2022-11-25T03:28:13.832Z,4.70
2022-11-25T03:29:13.815Z,5.20
2022-11-25T03:30:13.804Z,4.10
2022-11-25T03:31:13.837Z,5.30
2022-11-25T03:32:13.844Z,3.20
2022-11-25T03:33:13.754Z,5.80
2022-11-25T03:34:13.749Z,4.60
2022-11-25T03:35:13.731Z,5.70
2022-11-25T03:36:13.722Z,4.20
2022-11-25T03:37:13.776Z,4.50
2022-11-25T03:38:13.701Z,6.10
2022-11-25T03:39:13.683Z,4.70
2022-11-25T03:40:14.653Z,5.40
2022-11-25T03:41:13.654Z,5.20
2022-11-25T03:42:13.642Z,3.80
2022-11-25T03:43:13.641Z,2.90
2022-11-25T03:44:13.620Z,3.60
2022-11-25T03:45:13.600Z,3.10
2022-11-25T03:46:13.607Z,2.80
2022-11-25T03:47:13.570Z,3.30
2022-11-25T03:48:13.561Z,3.00
2022-11-25T03:49:13.570Z,3.30
2022-11-25T03:50:13.543Z,3.50
2022-11-25T03:51:13.511Z,3.60
2022-11-25T03:52:13.513Z,3.50
2022-11-25T03:53:13.491Z,2.70
2022-11-25T03:54:13.491Z,3.60
2022-11-25T03:55:13.499Z,5.00
2022-11-25T03:56:13.460Z,3.10
2022-11-25T03:57:13.444Z,4.40
2022-11-25T03:58:13.430Z,3.20
2022-11-25T03:59:13.409Z,3.90
2022-11-25T04:00:13.411Z,3.40
2022-11-25T04:01:13.451Z,4.20
2022-11-25T04:02:13.418Z,4.00
2022-11-25T04:03:13.358Z,3.90
2022-11-25T04:04:13.348Z,4.60
2022-11-25T04:05:13.329Z,3.50
2022-11-25T04:06:13.327Z,2.90
2022-11-25T04:07:13.354Z,4.20
2022-11-25T04:08:13.299Z,2.80
2022-11-25T04:09:13.279Z,3.40
2022-11-25T04:10:13.276Z,2.70
2022-11-25T04:11:13.248Z,2.80
2022-11-25T04:12:13.251Z,2.40
2022-11-25T04:13:13.249Z,2.60
2022-11-25T04:14:13.228Z,2.70
2022-11-25T04:15:13.198Z,3.80
2022-11-25T04:16:13.234Z,2.10
2022-11-25T04:17:13.168Z,3.50
2022-11-25T04:18:13.167Z,3.90
2022-11-25T04:19:13.158Z,4.00
2022-11-25T04:20:13.137Z,6.00
2022-11-25T04:21:13.124Z,6.20
2022-11-25T04:22:13.109Z,3.30
2022-11-25T04:23:13.098Z,3.90
2022-11-25T04:24:13.089Z,4.10
2022-11-25T04:25:13.090Z,3.80
2022-11-25T04:26:13.065Z,3.80
2022-11-25T04:27:13.040Z,2.90
2022-11-25T04:28:13.028Z,3.00
2022-11-25T04:29:13.007Z,3.80
2022-11-25T04:30:13.006Z,4.70
2022-11-25T04:31:13.085Z,5.10
2022-11-25T04:32:12.986Z,3.30
2022-11-25T04:33:12.965Z,3.60
2022-11-25T04:34:12.946Z,2.80
2022-11-25T04:35:12.935Z,4.30
2022-11-25T04:36:12.920Z,4.20
2022-11-25T04:37:12.926Z,4.30
2022-11-25T04:38:12.902Z,3.70
2022-11-25T04:39:12.875Z,3.10
2022-11-25T04:40:12.901Z,3.80
2022-11-25T04:41:12.852Z,4.30
2022-11-25T04:42:12.866Z,3.10
2022-11-25T04:43:12.844Z,5.10
2022-11-25T04:44:12.814Z,3.50
2022-11-25T04:45:33.347Z,2.40
2022-11-25T04:46:14.689Z,4.60
2022-11-25T04:47:12.838Z,3.60
2022-11-25T04:48:12.766Z,4.20
2022-11-25T04:49:12.777Z,3.90
2022-11-25T04:50:12.734Z,3.70
2022-11-25T04:51:12.744Z,3.70
2022-11-25T04:52:12.716Z,4.60
2022-11-25T04:53:12.703Z,4.50
2022-11-25T04:54:17.288Z,5.00
2022-11-25T04:55:13.693Z,4.80
2022-11-25T04:56:12.663Z,5.90
2022-11-25T04:57:12.644Z,4.70
2022-11-25T04:58:12.643Z,3.10
2022-11-25T04:59:12.623Z,7.10
2022-11-25T05:00:12.613Z,3.30
2022-11-25T05:01:12.643Z,2.50
2022-11-25T05:02:12.608Z,3.10
2022-11-25T05:03:12.563Z,2.60
2022-11-25T05:04:12.562Z,3.40
2022-11-25T05:05:12.536Z,4.10
2022-11-25T05:06:12.531Z,4.30
2022-11-25T05:07:12.582Z,2.60
2022-11-25T05:08:12.501Z,2.60
2022-11-25T05:09:12.488Z,2.90
2022-11-25T05:10:12.484Z,4.20
2022-11-25T05:11:12.462Z,4.50
2022-11-25T05:12:12.452Z,3.30
2022-11-25T05:13:12.470Z,2.60
2022-11-25T05:14:12.431Z,2.30
2022-11-25T05:15:12.409Z,2.90
2022-11-25T05:16:12.499Z,3.20
2022-11-25T05:17:12.381Z,2.30
2022-11-25T05:18:12.371Z,3.70
2022-11-25T05:19:12.396Z,2.90
2022-11-25T05:20:12.353Z,2.00
2022-11-25T05:21:12.340Z,6.00
2022-11-25T05:22:12.322Z,2.30
2022-11-25T05:23:12.334Z,4.20
2022-11-25T05:24:12.291Z,2.10
2022-11-25T05:25:12.302Z,5.90
2022-11-25T05:26:12.270Z,2.30
2022-11-25T05:27:12.254Z,5.70
2022-11-25T05:28:12.239Z,2.10
2022-11-25T05:29:12.229Z,2.00
2022-11-25T05:30:12.209Z,2.50
2022-11-25T05:31:12.279Z,3.40
2022-11-25T05:32:12.192Z,2.20
2022-11-25T05:33:12.168Z,2.50
2022-11-25T05:34:12.159Z,1.60
2022-11-25T05:35:12.149Z,2.60
2022-11-25T05:36:12.138Z,2.50
2022-11-25T05:37:12.139Z,2.40
2022-11-25T05:38:12.109Z,4.30
2022-11-25T05:39:12.090Z,4.90
2022-11-25T05:40:12.079Z,4.30
2022-11-25T05:41:12.068Z,4.50
2022-11-25T05:42:12.068Z,4.30
2022-11-25T05:43:12.059Z,2.70
2022-11-25T05:44:12.039Z,2.50
2022-11-25T05:45:12.008Z,2.70
2022-11-25T05:46:12.035Z,2.10
2022-11-25T05:47:11.991Z,3.00
2022-11-25T05:48:11.986Z,5.60
2022-11-25T05:49:11.989Z,4.50
2022-11-25T05:50:11.957Z,2.60
2022-11-25T05:51:11.959Z,3.40
2022-11-25T05:52:11.927Z,2.30
2022-11-25T05:53:11.907Z,2.60
2022-11-25T05:54:11.905Z,2.80
2022-11-25T05:55:11.923Z,2.00
2022-11-25T05:56:11.876Z,6.60
2022-11-25T05:57:11.867Z,2.50
2022-11-25T05:58:11.846Z,6.70
2022-11-25T05:59:11.825Z,2.70
2022-11-25T06:00:11.829Z,5.00
2022-11-25T06:01:11.836Z,3.10
2022-11-25T06:02:11.852Z,2.00
2022-11-25T06:03:11.874Z,2.40
2022-11-25T06:04:11.779Z,3.50
2022-11-25T06:05:11.754Z,2.40
2022-11-25T06:06:11.751Z,2.70
2022-11-25T06:07:11.797Z,2.10
2022-11-25T06:08:11.719Z,2.60
2022-11-25T06:09:11.695Z,2.10
2022-11-25T06:10:11.685Z,2.10
2022-11-25T06:11:11.677Z,2.30
2022-11-25T06:12:11.664Z,2.10
2022-11-25T06:13:11.673Z,3.80
2022-11-25T06:14:11.634Z,3.60
2022-11-25T06:15:11.624Z,5.20
2022-11-25T06:16:11.685Z,2.50
2022-11-25T06:17:11.594Z,5.20
2022-11-25T06:18:11.584Z,3.80
2022-11-25T06:19:11.583Z,2.20
2022-11-25T06:20:11.556Z,5.80
2022-11-25T06:21:11.541Z,2.60
2022-11-25T06:22:11.533Z,4.60
2022-11-25T06:23:11.513Z,2.70
2022-11-25T06:24:11.504Z,4.90
2022-11-25T06:25:11.503Z,3.00
2022-11-25T06:26:11.482Z,4.00
2022-11-25T06:27:11.462Z,3.40
2022-11-25T06:28:13.178Z,4.80
2022-11-25T06:29:11.442Z,3.20
2022-11-25T06:30:11.432Z,8.20
2022-11-25T06:31:11.471Z,6.30
2022-11-25T06:32:11.416Z,5.10
2022-11-25T06:33:11.385Z,7.30
2022-11-25T06:34:11.384Z,3.80
2022-11-25T06:35:11.353Z,3.50
2022-11-25T06:36:11.352Z,8.40
2022-11-25T06:37:11.351Z,1.80
2022-11-25T06:38:11.322Z,2.80
2022-11-25T06:39:11.305Z,2.50
2022-11-25T06:40:11.301Z,4.10
2022-11-25T06:41:11.280Z,3.40
2022-11-25T06:42:11.269Z,6.70
2022-11-25T06:43:11.269Z,2.50
2022-11-25T06:44:11.241Z,3.30
2022-11-25T06:45:11.240Z,2.50
2022-11-25T06:46:11.284Z,5.50
2022-11-25T06:47:11.199Z,7.80
2022-11-25T06:48:11.198Z,3.60
2022-11-25T06:49:11.189Z,2.50
2022-11-25T06:50:11.170Z,3.30
2022-11-25T06:51:11.155Z,3.50
2022-11-25T06:52:11.139Z,4.50
2022-11-25T06:53:11.140Z,6.10
2022-11-25T06:54:11.110Z,3.00
2022-11-25T06:55:11.141Z,5.00
2022-11-25T06:56:11.092Z,3.90
2022-11-25T06:57:11.067Z,3.40
2022-11-25T06:58:34.230Z,6.20
2022-11-25T06:59:12.048Z,4.00
2022-11-25T07:00:11.030Z,6.50
2022-11-25T07:01:11.072Z,4.60
2022-11-25T07:02:11.046Z,5.10
2022-11-25T07:03:11.107Z,3.60
2022-11-25T07:04:10.989Z,4.70
2022-11-25T07:05:10.970Z,4.50
2022-11-25T07:06:10.959Z,4.00
2022-11-25T07:07:11.008Z,3.40
2022-11-25T07:08:10.926Z,4.30
2022-11-25T07:09:10.907Z,3.20
2022-11-25T07:10:10.908Z,4.00
2022-11-25T07:11:10.886Z,3.80
2022-11-25T07:12:10.878Z,5.10
2022-11-25T07:13:10.876Z,5.40
2022-11-25T07:14:10.847Z,4.40
2022-11-25T07:15:10.828Z,5.90
2022-11-25T07:16:10.903Z,4.80
2022-11-25T07:17:12.375Z,7.40
2022-11-25T07:18:10.806Z,4.70
2022-11-25T07:19:10.807Z,4.70
2022-11-25T07:20:10.766Z,4.70
2022-11-25T07:21:10.747Z,4.80
2022-11-25T07:22:10.746Z,5.20
2022-11-25T07:23:10.732Z,6.00
2022-11-25T07:24:10.728Z,6.20
2022-11-25T07:25:10.739Z,3.40
2022-11-25T07:26:10.696Z,4.20
2022-11-25T07:27:10.675Z,4.40
2022-11-25T07:28:10.665Z,6.40
2022-11-25T07:29:23.444Z,6.60
2022-11-25T07:31:09.260Z,6.10
2022-11-25T07:32:11.594Z,4.70
2022-11-25T07:33:10.634Z,5.00
2022-11-25T07:34:10.585Z,4.20
2022-11-25T07:35:10.572Z,7.50
2022-11-25T07:36:10.574Z,6.30
2022-11-25T07:37:10.567Z,5.30
2022-11-25T07:38:10.524Z,5.70
2022-11-25T07:39:10.523Z,7.60
2022-11-25T07:40:10.503Z,8.80
2022-11-25T07:41:10.502Z,9.10
2022-11-25T07:42:10.513Z,6.90
2022-11-25T07:43:10.473Z,4.10
2022-11-25T07:44:10.455Z,8.20
2022-11-25T07:45:10.459Z,5.70
2022-11-25T07:46:10.493Z,7.50
2022-11-25T07:47:10.419Z,9.80
2022-11-25T07:48:10.432Z,9.10
2022-11-25T07:49:10.393Z,10.80
2022-11-25T07:50:10.373Z,7.80
2022-11-25T07:51:10.379Z,7.50
2022-11-25T07:52:10.341Z,6.80
2022-11-25T07:53:10.343Z,7.50
2022-11-25T07:54:10.343Z,8.60
2022-11-25T07:55:10.313Z,8.10
2022-11-25T07:56:10.292Z,7.10
2022-11-25T07:57:10.281Z,7.20
2022-11-25T07:58:10.262Z,6.00
2022-11-25T07:59:10.261Z,7.40
2022-11-25T08:00:10.261Z,8.80
2022-11-25T08:01:10.302Z,7.80
2022-11-25T08:02:10.313Z,7.60
2022-11-25T08:03:10.247Z,9.90
2022-11-25T08:04:11.889Z,9.30
2022-11-25T08:05:10.171Z,10.40
2022-11-25T08:06:10.202Z,8.30
2022-11-25T08:07:10.174Z,9.10
2022-11-25T08:08:10.178Z,10.50
2022-11-25T08:09:10.121Z,9.30
2022-11-25T08:10:10.119Z,9.90
2022-11-25T08:11:10.091Z,15.10
2022-11-25T08:12:10.122Z,9.60
2022-11-25T08:13:10.070Z,7.10
2022-11-25T08:14:10.060Z,9.10
2022-11-25T08:15:10.038Z,7.30
2022-11-25T08:16:10.099Z,9.50
2022-11-25T08:17:10.029Z,6.30
2022-11-25T08:18:10.029Z,8.20
2022-11-25T08:19:09.988Z,7.50
2022-11-25T08:20:09.978Z,9.70
2022-11-25T08:21:09.975Z,10.10
2022-11-25T08:22:09.958Z,11.40
2022-11-25T08:23:09.940Z,11.20
2022-11-25T08:24:09.958Z,11.30
2022-11-25T08:25:09.909Z,8.90
2022-11-25T08:26:09.898Z,11.70
2022-11-25T08:27:09.877Z,10.20
2022-11-25T08:28:09.881Z,9.90
2022-11-25T08:29:09.858Z,10.40
2022-11-25T08:30:09.969Z,13.90
2022-11-25T08:31:09.883Z,15.90
2022-11-25T08:32:11.963Z,13.70
2022-11-25T08:33:09.808Z,13.70
2022-11-25T08:34:09.796Z,11.70
2022-11-25T08:35:09.777Z,8.70
2022-11-25T08:36:09.807Z,7.60
2022-11-25T08:37:09.747Z,9.50
2022-11-25T08:38:09.749Z,10.80
2022-11-25T08:39:36.354Z,15.20
2022-11-25T08:40:10.715Z,14.30
2022-11-25T08:41:09.697Z,15.50
2022-11-25T08:42:09.716Z,14.90
2022-11-25T08:43:09.676Z,10.80
2022-11-25T08:44:09.669Z,14.20
2022-11-25T08:45:09.645Z,16.90
2022-11-25T08:46:09.689Z,14.60
2022-11-25T08:47:09.624Z,12.80
2022-11-25T08:48:09.647Z,10.40
2022-11-25T08:49:09.595Z,11.20
2022-11-25T08:50:09.586Z,14.80
2022-11-25T08:51:09.569Z,14.30
2022-11-25T08:52:09.555Z,11.10
2022-11-25T08:53:09.542Z,13.60
2022-11-25T08:54:09.554Z,15.90
2022-11-25T08:55:09.516Z,12.90
2022-11-25T08:56:09.504Z,10.40
2022-11-25T08:57:09.483Z,12.40
2022-11-25T08:58:09.484Z,11.10
2022-11-25T08:59:09.463Z,14.30
2022-11-25T09:00:09.473Z,14.70
2022-11-25T09:01:09.437Z,12.40
2022-11-25T09:02:09.496Z,15.50
2022-11-25T09:03:09.498Z,10.20
2022-11-25T09:04:09.404Z,11.20
2022-11-25T09:05:09.382Z,13.10
2022-11-25T09:06:09.394Z,13.40
2022-11-25T09:07:09.387Z,15.10
2022-11-25T09:08:09.431Z,10.00
2022-11-25T09:09:09.333Z,14.10
2022-11-25T09:10:09.324Z,9.60
2022-11-25T09:11:09.390Z,10.60
2022-11-25T09:12:09.320Z,11.50
2022-11-25T09:13:09.282Z,12.50
2022-11-25T09:14:09.307Z,10.10
2022-11-25T09:15:09.243Z,9.40
2022-11-25T09:16:09.394Z,12.00
2022-11-25T09:17:09.225Z,9.90
2022-11-25T09:18:09.263Z,10.80
2022-11-25T09:19:09.191Z,8.10
2022-11-25T09:20:09.184Z,13.50
2022-11-25T09:21:09.252Z,10.00
2022-11-25T09:22:09.160Z,9.60
2022-11-25T09:23:09.141Z,8.20
2022-11-25T09:24:09.153Z,9.10
2022-11-25T09:25:09.121Z,10.20
2022-11-25T09:26:09.112Z,11.10
2022-11-25T09:27:09.082Z,8.30
2022-11-25T09:28:09.081Z,9.80
2022-11-25T09:29:09.061Z,8.70
2022-11-25T09:30:09.101Z,8.90
2022-11-25T09:31:09.082Z,8.70
2022-11-25T09:32:09.035Z,8.90
2022-11-25T09:33:09.024Z,7.60
2022-11-25T09:34:09.008Z,8.30
2022-11-25T09:35:08.980Z,10.60
2022-11-25T09:36:09.019Z,11.40
2022-11-25T09:37:08.960Z,10.80
2022-11-25T09:38:08.951Z,10.80
2022-11-25T09:39:08.930Z,8.40
2022-11-25T09:40:08.921Z,12.40
2022-11-25T09:41:08.901Z,7.20
2022-11-25T09:42:08.940Z,7.90
2022-11-25T09:43:08.880Z,7.00
2022-11-25T09:44:08.881Z,10.30
2022-11-25T09:45:08.850Z,12.00
2022-11-25T09:46:08.895Z,7.30
2022-11-25T09:47:08.828Z,9.00
2022-11-25T09:48:08.857Z,7.50
2022-11-25T09:49:08.790Z,7.10
2022-11-25T09:50:08.790Z,8.20
2022-11-25T09:51:08.775Z,11.40
2022-11-25T09:52:08.760Z,8.30
2022-11-25T09:53:08.769Z,10.80
2022-11-25T09:54:08.769Z,8.40
2022-11-25T09:55:08.720Z,11.20
2022-11-25T09:56:08.711Z,7.40
2022-11-25T09:57:08.689Z,9.10
2022-11-25T09:58:08.689Z,7.50
2022-11-25T09:59:08.668Z,6.90
2022-11-25T10:00:08.691Z,8.20
2022-11-25T10:01:08.640Z,8.40
2022-11-25T10:02:08.743Z,10.40
2022-11-25T10:03:08.728Z,8.20
2022-11-25T10:04:08.608Z,8.20
2022-11-25T10:05:08.587Z,8.30
2022-11-25T10:06:08.628Z,9.20
2022-11-25T10:07:08.602Z,11.40
2022-11-25T10:08:08.556Z,6.90
2022-11-25T10:09:08.530Z,7.70
2022-11-25T10:10:08.518Z,8.70
2022-11-25T10:11:08.508Z,8.30
2022-11-25T10:12:08.528Z,8.00
2022-11-25T10:13:08.491Z,7.10
2022-11-25T10:14:08.467Z,5.30
2022-11-25T10:15:08.461Z,9.10
2022-11-25T10:16:08.514Z,8.40
2022-11-25T10:17:08.429Z,6.10
2022-11-25T10:18:08.437Z,6.50
2022-11-25T10:19:08.396Z,6.00
2022-11-25T10:20:08.392Z,6.80
2022-11-25T10:21:08.377Z,6.50
2022-11-25T10:22:08.362Z,8.50
2022-11-25T10:23:08.348Z,5.70
2022-11-25T10:24:08.387Z,5.20
2022-11-25T10:25:08.317Z,5.30
2022-11-25T10:26:08.318Z,7.30
2022-11-25T10:27:08.287Z,5.30
2022-11-25T10:28:08.278Z,5.60
2022-11-25T10:29:08.268Z,3.90
2022-11-25T10:30:08.277Z,6.30
2022-11-25T10:31:08.312Z,5.40
2022-11-25T10:32:08.237Z,6.30
2022-11-25T10:33:08.217Z,4.80
2022-11-25T10:34:08.209Z,5.30
2022-11-25T10:35:08.188Z,3.10
2022-11-25T10:36:08.208Z,5.40
2022-11-25T10:37:08.157Z,4.60
2022-11-25T10:38:08.156Z,5.30
2022-11-25T10:39:08.126Z,5.10
2022-11-25T10:40:08.126Z,4.90
2022-11-25T10:41:08.116Z,3.40
2022-11-25T10:42:08.127Z,4.30
2022-11-25T10:43:08.089Z,3.50
2022-11-25T10:44:08.066Z,4.10
2022-11-25T10:45:08.086Z,4.10
2022-11-25T10:46:08.066Z,4.60
2022-11-25T10:47:15.583Z,3.80
2022-11-25T10:48:09.043Z,5.70
2022-11-25T10:49:08.007Z,3.70
2022-11-25T10:50:07.991Z,5.90
2022-11-25T10:51:07.984Z,4.30
2022-11-25T10:52:07.956Z,3.80
2022-11-25T10:53:07.956Z,3.70
2022-11-25T10:54:07.964Z,4.90
2022-11-25T10:55:07.916Z,5.70
2022-11-25T10:56:07.919Z,3.40
2022-11-25T10:57:07.895Z,4.90
2022-11-25T10:58:07.878Z,4.00
2022-11-25T10:59:07.864Z,2.70
2022-11-25T11:00:11.617Z,3.70
2022-11-25T11:01:08.844Z,2.70
2022-11-25T11:02:07.895Z,5.40
2022-11-25T11:03:07.917Z,5.50
2022-11-25T11:04:07.795Z,4.70
2022-11-25T11:05:07.776Z,6.30
2022-11-25T11:06:07.807Z,3.10
2022-11-25T11:07:07.882Z,3.90
2022-11-25T11:08:07.807Z,2.80
2022-11-25T11:09:07.725Z,5.10
2022-11-25T11:10:07.717Z,4.30
2022-11-25T11:11:07.695Z,3.00
2022-11-25T11:12:07.706Z,5.00
2022-11-25T11:13:07.666Z,5.60
2022-11-25T11:14:07.656Z,6.30
2022-11-25T11:15:07.637Z,2.90
2022-11-25T11:16:07.682Z,4.40
2022-11-25T11:17:07.615Z,3.90
2022-11-25T11:18:07.655Z,4.40
2022-11-25T11:19:07.585Z,4.40
2022-11-25T11:20:07.574Z,5.30
2022-11-25T11:21:07.576Z,5.40
2022-11-25T11:22:07.554Z,2.60
2022-11-25T11:23:09.271Z,5.50
2022-11-25T11:24:07.544Z,4.60
2022-11-25T11:25:07.515Z,3.90
2022-11-25T11:26:07.496Z,5.10
2022-11-25T11:27:07.477Z,5.30
2022-11-25T11:28:07.465Z,4.20
2022-11-25T11:29:12.729Z,5.00
2022-11-25T11:30:08.465Z,4.50
2022-11-25T11:31:07.483Z,4.60
2022-11-25T11:32:07.404Z,3.90
2022-11-25T11:33:07.407Z,4.60
2022-11-25T11:34:07.376Z,6.10
2022-11-25T11:35:07.372Z,4.40
2022-11-25T11:36:07.373Z,4.70
2022-11-25T11:37:07.344Z,3.20
2022-11-25T11:38:07.325Z,4.20
2022-11-25T11:39:07.315Z,4.70
2022-11-25T11:40:07.299Z,2.20
2022-11-25T11:41:07.292Z,5.80
2022-11-25T11:42:07.284Z,3.50
2022-11-25T11:43:07.254Z,3.70
2022-11-25T11:44:07.235Z,6.20
2022-11-25T11:45:07.236Z,5.60
2022-11-25T11:46:07.233Z,4.40
2022-11-25T11:47:07.257Z,4.70
2022-11-25T11:48:07.210Z,6.70
2022-11-25T11:49:07.183Z,4.20
2022-11-25T11:50:07.165Z,5.60
2022-11-25T11:51:07.163Z,5.00
2022-11-25T11:52:07.143Z,5.20
2022-11-25T11:53:07.124Z,5.10
2022-11-25T11:54:07.126Z,3.90
2022-11-25T11:55:07.115Z,4.30
2022-11-25T11:57:08.065Z,2.50
2022-11-25T11:58:07.064Z,3.70
2022-11-25T11:59:07.057Z,3.60
2022-11-25T12:00:07.064Z,6.70
2022-11-25T12:01:07.041Z,4.20
2022-11-25T12:02:07.045Z,5.00
2022-11-25T12:03:07.047Z,3.30
2022-11-25T12:04:06.984Z,3.40
2022-11-25T12:05:06.994Z,5.20
2022-11-25T12:06:06.993Z,2.80
2022-11-25T12:07:06.999Z,3.30
2022-11-25T12:08:06.923Z,5.00
2022-11-25T12:09:06.903Z,4.00
2022-11-25T12:10:06.894Z,6.00
2022-11-25T12:11:06.875Z,3.60
2022-11-25T12:12:06.893Z,5.10
2022-11-25T12:13:06.856Z,2.40
2022-11-25T12:14:06.844Z,4.00
2022-11-25T12:15:06.834Z,6.60
2022-11-25T12:16:06.899Z,4.10
2022-11-25T12:17:06.803Z,3.60
2022-11-25T12:18:06.824Z,2.30
2022-11-25T12:19:06.772Z,5.00
2022-11-25T12:20:06.763Z,6.40
2022-11-25T12:21:06.735Z,3.90
2022-11-25T12:22:06.750Z,3.30
2022-11-25T12:23:06.724Z,6.70
2022-11-25T12:24:06.734Z,4.80
2022-11-25T12:25:06.694Z,3.70
2022-11-25T12:26:06.684Z,5.00
2022-11-25T12:27:06.684Z,1.80
2022-11-25T12:28:06.655Z,5.10
2022-11-25T12:29:06.634Z,4.00
2022-11-25T12:30:06.644Z,4.50
2022-11-25T12:31:06.655Z,5.80
2022-11-25T12:32:06.651Z,4.60
2022-11-25T12:33:06.583Z,5.20
2022-11-25T12:34:06.575Z,3.40
2022-11-25T12:35:06.561Z,5.00
2022-11-25T12:36:06.564Z,3.40
2022-11-25T12:37:09.486Z,4.10
2022-11-25T12:38:07.514Z,4.70
2022-11-25T12:39:06.526Z,3.20
2022-11-25T12:40:06.483Z,3.60
2022-11-25T12:41:06.483Z,3.70
2022-11-25T12:42:06.497Z,3.60
2022-11-25T12:43:06.464Z,5.00
2022-11-25T12:44:06.432Z,5.60
2022-11-25T12:45:06.434Z,3.00
2022-11-25T12:46:06.439Z,4.00
2022-11-25T12:47:06.409Z,3.50
2022-11-25T12:48:06.413Z,4.40
2022-11-25T12:49:06.382Z,2.90
2022-11-25T12:50:06.354Z,4.40
2022-11-25T12:51:06.345Z,3.00
2022-11-25T12:52:06.341Z,2.90
2022-11-25T12:53:06.322Z,4.40
2022-11-25T12:54:06.322Z,3.40
2022-11-25T12:55:06.297Z,4.20
2022-11-25T12:56:06.285Z,5.00
2022-11-25T12:57:06.276Z,1.50
2022-11-25T12:58:06.253Z,3.60
2022-11-25T12:59:06.309Z,3.20
2022-11-25T13:00:39.361Z,6.20
2022-11-25T13:01:07.325Z,4.50
2022-11-25T13:02:06.237Z,4.90
2022-11-25T13:03:12.304Z,3.80
2022-11-25T13:04:07.171Z,5.30
2022-11-25T13:05:32.810Z,4.40
2022-11-25T13:06:07.174Z,3.90
2022-11-25T13:07:06.260Z,5.00
2022-11-25T13:08:06.130Z,3.50
2022-11-25T13:09:06.104Z,3.20
2022-11-25T13:10:06.094Z,3.30
2022-11-25T13:11:06.265Z,4.30
2022-11-25T13:12:06.514Z,4.00
2022-11-25T13:13:06.385Z,3.90
2022-11-25T13:14:06.413Z,4.00
2022-11-25T13:15:06.480Z,3.10
2022-11-25T13:16:06.374Z,2.20